Time,TemperatureF,DewpointF,PressureIn,WindDirection,WindDirectionDegrees,WindSpeedMPH,WindSpeedGustMPH,Humidity,HourlyPrecipIn,Conditions,Clouds,dailyrainin,SoftwareType,DateUTC
2013-04-10 00:01:00,63.2,50.8,29.85,WSW,254,0.0,5.0,64,0.00,,---,0.00,VWS V14.01,2013-04-10 04:01:00,
2013-04-10 00:02:00,63.2,50.8,29.85,WSW,255,0.0,5.0,64,0.00,,---,0.00,VWS V14.01,2013-04-10 04:02:00,
2013-04-10 00:05:00,63.0,50.7,29.85,WSW,255,0.0,1.0,64,0.00,,---,0.00,VWS V14.01,2013-04-10 04:05:00,
2013-04-10 00:11:00,62.7,50.8,29.85,WSW,255,1.0,3.0,65,0.00,,---,0.00,VWS V14.01,2013-04-10 04:11:00,
2013-04-10 00:17:00,62.3,50.4,29.86,WSW,255,1.0,4.0,65,0.00,,---,0.00,VWS V14.01,2013-04-10 04:17:00,
2013-04-10 00:24:00,61.8,50.3,29.85,WSW,257,1.0,6.0,66,0.00,,---,0.00,VWS V14.01,2013-04-10 04:24:00,
2013-04-10 00:30:00,61.3,49.9,29.85,SE,145,2.0,10.0,66,0.00,,---,0.00,VWS V14.01,2013-04-10 04:30:00,
2013-04-10 00:38:00,60.6,49.6,29.85,NNE,29,0.0,6.0,67,0.00,,---,0.00,VWS V14.01,2013-04-10 04:38:00,
2013-04-10 00:44:00,60.0,49.0,29.85,NNE,29,0.0,6.0,67,0.00,,---,0.00,VWS V14.01,2013-04-10 04:44:00,
2013-04-10 00:50:00,59.4,48.8,29.85,NE,36,0.0,6.0,68,0.00,,---,0.00,VWS V14.01,2013-04-10 04:50:00,
2013-04-10 00:56:00,59.0,48.9,29.85,NE,36,0.0,6.0,69,0.00,,---,0.00,VWS V14.01,2013-04-10 04:56:00,
2013-04-10 01:02:00,58.7,49.0,29.85,NE,36,0.0,6.0,70,0.00,,---,0.00,VWS V14.01,2013-04-10 05:02:00,
2013-04-10 01:08:00,58.3,49.0,29.85,SW,236,0.0,3.0,71,0.00,,---,0.00,VWS V14.01,2013-04-10 05:08:00,
2013-04-10 01:14:00,58.1,48.8,29.84,SW,234,2.0,3.0,71,0.00,,---,0.00,VWS V14.01,2013-04-10 05:14:00,
2013-04-10 01:21:00,57.9,48.9,29.84,SW,233,0.0,3.0,72,0.00,,---,0.00,VWS V14.01,2013-04-10 05:21:00,
2013-04-10 01:27:00,57.8,48.8,29.85,SW,227,0.0,3.0,72,0.00,,---,0.00,VWS V14.01,2013-04-10 05:27:00,
2013-04-10 01:32:00,57.7,48.8,29.85,SW,226,0.0,3.0,72,0.00,,---,0.00,VWS V14.01,2013-04-10 05:32:00,
2013-04-10 01:37:00,57.4,48.5,29.86,SW,226,0.0,1.0,72,0.00,,---,0.00,VWS V14.01,2013-04-10 05:37:00,
2013-04-10 01:43:00,57.2,48.6,29.86,SW,226,0.0,1.0,73,0.00,,---,0.00,VWS V14.01,2013-04-10 05:43:00,
2013-04-10 01:49:00,56.9,48.3,29.86,SW,231,0.0,2.0,73,0.00,,---,0.00,VWS V14.01,2013-04-10 05:49:00,
2013-04-10 01:55:00,56.8,48.2,29.87,SW,232,0.0,2.0,73,0.00,,---,0.00,VWS V14.01,2013-04-10 05:55:00,
2013-04-10 02:01:00,56.6,48.4,29.87,SW,226,0.0,2.0,74,0.00,,---,0.00,VWS V14.01,2013-04-10 06:01:00,
2013-04-10 02:07:00,56.5,48.3,29.86,SW,234,1.0,2.0,74,0.00,,---,0.00,VWS V14.01,2013-04-10 06:07:00,
2013-04-10 02:13:00,56.3,48.1,29.86,SW,226,0.0,2.0,74,0.00,,---,0.00,VWS V14.01,2013-04-10 06:13:00,
2013-04-10 02:19:00,56.1,48.3,29.86,SW,226,0.0,2.0,75,0.00,,---,0.00,VWS V14.01,2013-04-10 06:19:00,
2013-04-10 02:25:00,56.1,48.3,29.87,SW,225,0.0,2.0,75,0.00,,---,0.00,VWS V14.01,2013-04-10 06:25:00,
2013-04-10 02:32:00,56.1,48.3,29.87,NNE,14,0.0,3.0,75,0.00,,---,0.00,VWS V14.01,2013-04-10 06:32:00,
2013-04-10 02:38:00,56.2,48.4,29.87,NNE,14,0.0,3.0,75,0.00,,---,0.00,VWS V14.01,2013-04-10 06:38:00,
2013-04-10 02:44:00,56.2,48.4,29.87,NNE,14,0.0,3.0,75,0.00,,---,0.00,VWS V14.01,2013-04-10 06:44:00,
2013-04-10 02:50:00,56.3,48.5,29.87,NW,317,0.0,4.0,75,0.00,,---,0.00,VWS V14.01,2013-04-10 06:50:00,
2013-04-10 02:58:00,56.3,48.5,29.87,NW,317,0.0,4.0,75,0.00,,---,0.00,VWS V14.01,2013-04-10 06:58:00,
2013-04-10 03:04:00,56.2,48.8,29.87,NW,317,0.0,0.0,76,0.00,,---,0.00,VWS V14.01,2013-04-10 07:04:00,
2013-04-10 03:10:00,56.1,49.3,29.88,NW,317,0.0,0.0,78,0.00,,---,0.00,VWS V14.01,2013-04-10 07:10:00,
2013-04-10 03:18:00,55.7,50.0,29.88,NW,317,0.0,0.0,81,0.01,,---,0.01,VWS V14.01,2013-04-10 07:18:00,
2013-04-10 03:24:00,55.4,50.0,29.88,NW,315,0.0,1.0,82,0.01,,---,0.01,VWS V14.01,2013-04-10 07:24:00,
2013-04-10 03:31:00,55.1,49.7,29.89,NW,317,0.0,2.0,82,0.01,,---,0.01,VWS V14.01,2013-04-10 07:31:00,
2013-04-10 03:37:00,54.8,50.1,29.88,NNW,336,1.0,2.0,84,0.02,,---,0.02,VWS V14.01,2013-04-10 07:37:00,
2013-04-10 03:43:00,54.5,50.1,29.88,NNW,329,0.0,2.0,85,0.03,,---,0.03,VWS V14.01,2013-04-10 07:43:00,
2013-04-10 03:49:00,54.2,50.4,29.87,NNW,329,1.0,2.0,87,0.03,,---,0.03,VWS V14.01,2013-04-10 07:49:00,
2013-04-10 03:55:00,53.8,50.0,29.88,NNW,329,0.0,2.0,87,0.03,,---,0.03,VWS V14.01,2013-04-10 07:55:00,
2013-04-10 04:01:00,53.5,50.0,29.88,NNW,329,0.0,2.0,88,0.03,,---,0.03,VWS V14.01,2013-04-10 08:01:00,
2013-04-10 04:07:00,53.3,49.8,29.87,NNW,329,0.0,2.0,88,0.03,,---,0.03,VWS V14.01,2013-04-10 08:07:00,
2013-04-10 04:13:00,53.2,50.0,29.87,NNW,329,0.0,3.0,89,0.06,,---,0.06,VWS V14.01,2013-04-10 08:13:00,
2013-04-10 04:19:00,53.1,50.0,29.87,NNW,329,0.0,3.0,89,0.07,,---,0.07,VWS V14.01,2013-04-10 08:19:00,
2013-04-10 04:26:00,52.9,50.0,29.88,NNW,329,0.0,3.0,90,0.07,,---,0.07,VWS V14.01,2013-04-10 08:26:00,
2013-04-10 04:32:00,52.8,50.0,29.88,NNW,329,0.0,3.0,90,0.08,,---,0.08,VWS V14.01,2013-04-10 08:32:00,
2013-04-10 04:38:00,52.8,50.2,29.86,East,82,0.0,3.0,91,0.09,,---,0.10,VWS V14.01,2013-04-10 08:38:00,
2013-04-10 04:44:00,52.7,50.2,29.87,East,80,0.0,3.0,91,0.11,,---,0.12,VWS V14.01,2013-04-10 08:44:00,
2013-04-10 04:50:00,52.7,50.2,29.87,East,80,0.0,3.0,91,0.15,,---,0.16,VWS V14.01,2013-04-10 08:50:00,
2013-04-10 04:56:00,52.7,50.5,29.86,East,81,2.0,3.0,92,0.16,,---,0.17,VWS V14.01,2013-04-10 08:56:00,
2013-04-10 05:02:00,52.7,50.5,29.86,East,81,0.0,3.0,92,0.16,,---,0.17,VWS V14.01,2013-04-10 09:02:00,
2013-04-10 05:08:00,52.6,50.3,29.87,East,80,1.0,2.0,92,0.15,,---,0.18,VWS V14.01,2013-04-10 09:08:00,
2013-04-10 05:14:00,52.6,50.3,29.86,ESE,112,0.0,4.0,92,0.15,,---,0.18,VWS V14.01,2013-04-10 09:14:00,
2013-04-10 05:20:00,52.6,50.3,29.87,ESE,110,0.0,4.0,92,0.16,,---,0.19,VWS V14.01,2013-04-10 09:20:00,
2013-04-10 05:26:00,52.6,50.3,29.87,ESE,110,0.0,4.0,92,0.17,,---,0.20,VWS V14.01,2013-04-10 09:26:00,
2013-04-10 05:32:00,52.5,50.2,29.87,ESE,111,0.0,4.0,92,0.18,,---,0.21,VWS V14.01,2013-04-10 09:32:00,
2013-04-10 05:38:00,52.5,50.2,29.87,ESE,111,0.0,1.0,92,0.13,,---,0.21,VWS V14.01,2013-04-10 09:38:00,
2013-04-10 05:44:00,52.5,50.5,29.87,ESE,111,0.0,2.0,93,0.13,,---,0.21,VWS V14.01,2013-04-10 09:44:00,
2013-04-10 05:50:00,52.5,50.5,29.87,ESE,109,1.0,2.0,93,0.13,,---,0.21,VWS V14.01,2013-04-10 09:50:00,
2013-04-10 05:57:00,52.5,50.5,29.87,ESE,111,2.0,2.0,93,0.13,,---,0.21,VWS V14.01,2013-04-10 09:57:00,
2013-04-10 06:02:00,52.5,50.5,29.87,ESE,111,2.0,3.0,93,0.13,,---,0.21,VWS V14.01,2013-04-10 10:02:00,
2013-04-10 06:07:00,52.5,50.5,29.87,ESE,105,1.0,3.0,93,0.04,,---,0.21,VWS V14.01,2013-04-10 10:07:00,
2013-04-10 06:13:00,52.5,50.5,29.86,ESE,109,1.0,3.0,93,0.04,,---,0.21,VWS V14.01,2013-04-10 10:13:00,
2013-04-10 06:19:00,52.5,50.5,29.86,ESE,111,1.0,3.0,93,0.04,,---,0.21,VWS V14.01,2013-04-10 10:19:00,
2013-04-10 06:25:00,52.5,50.5,29.86,ESE,111,1.0,3.0,93,0.04,,---,0.21,VWS V14.01,2013-04-10 10:25:00,
2013-04-10 06:31:00,52.5,50.5,29.86,ESE,112,0.0,3.0,93,0.04,,---,0.21,VWS V14.01,2013-04-10 10:31:00,
2013-04-10 06:37:00,52.5,50.5,29.86,ESE,111,1.0,1.0,93,0.00,,---,0.21,VWS V14.01,2013-04-10 10:37:00,
2013-04-10 06:43:00,52.4,50.4,29.86,ESE,111,0.0,2.0,93,0.00,,---,0.21,VWS V14.01,2013-04-10 10:43:00,
2013-04-10 06:49:00,52.3,50.3,29.85,ESE,111,2.0,2.0,93,0.00,,---,0.21,VWS V14.01,2013-04-10 10:49:00,
2013-04-10 06:55:00,52.1,50.1,29.85,ESE,111,1.0,3.0,93,0.00,,---,0.21,VWS V14.01,2013-04-10 10:55:00,
2013-04-10 07:01:00,51.9,49.9,29.85,ESE,111,2.0,3.0,93,0.00,,---,0.21,VWS V14.01,2013-04-10 11:01:00,
2013-04-10 07:07:00,51.9,49.9,29.85,ESE,112,0.0,2.0,93,0.00,,---,0.21,VWS V14.01,2013-04-10 11:07:00,
2013-04-10 07:14:00,51.9,49.9,29.85,ESE,111,1.0,2.0,93,0.00,,---,0.21,VWS V14.01,2013-04-10 11:14:00,
2013-04-10 07:20:00,52.0,50.0,29.85,ESE,112,1.0,2.0,93,0.00,,---,0.21,VWS V14.01,2013-04-10 11:20:00,
2013-04-10 07:26:00,52.1,50.4,29.85,ESE,111,1.0,2.0,94,0.00,,---,0.21,VWS V14.01,2013-04-10 11:26:00,
2013-04-10 07:32:00,52.2,50.5,29.85,ESE,111,0.0,2.0,94,0.00,,---,0.21,VWS V14.01,2013-04-10 11:32:00,
2013-04-10 07:38:00,52.3,50.6,29.86,ESE,111,0.0,0.0,94,0.00,,---,0.21,VWS V14.01,2013-04-10 11:38:00,
2013-04-10 07:44:00,52.4,50.7,29.85,ESE,111,0.0,1.0,94,0.00,,---,0.21,VWS V14.01,2013-04-10 11:44:00,
2013-04-10 07:50:00,52.6,50.9,29.86,ESE,110,1.0,1.0,94,0.00,,---,0.21,VWS V14.01,2013-04-10 11:50:00,
2013-04-10 07:56:00,52.6,50.9,29.87,ESE,109,0.0,1.0,94,0.00,,---,0.21,VWS V14.01,2013-04-10 11:56:00,
2013-04-10 08:02:00,52.6,50.9,29.87,ESE,103,0.0,1.0,94,0.00,,---,0.21,VWS V14.01,2013-04-10 12:02:00,
2013-04-10 08:08:00,52.8,51.1,29.87,East,101,0.0,0.0,94,0.00,,---,0.21,VWS V14.01,2013-04-10 12:08:00,
2013-04-10 08:14:00,52.9,51.2,29.86,ESE,110,1.0,2.0,94,0.00,,---,0.21,VWS V14.01,2013-04-10 12:14:00,
2013-04-10 08:21:00,53.2,51.5,29.86,ESE,110,2.0,2.0,94,0.00,,---,0.21,VWS V14.01,2013-04-10 12:21:00,
2013-04-10 08:27:00,53.5,51.8,29.86,ESE,108,0.0,3.0,94,0.00,,---,0.21,VWS V14.01,2013-04-10 12:27:00,
2013-04-10 08:32:00,53.8,52.1,29.86,ESE,118,1.0,3.0,94,0.00,,---,0.21,VWS V14.01,2013-04-10 12:32:00,
2013-04-10 08:37:00,54.1,52.4,29.86,ESE,118,1.0,2.0,94,0.00,,---,0.21,VWS V14.01,2013-04-10 12:37:00,
2013-04-10 08:43:00,54.6,52.9,29.85,South,188,0.0,3.0,94,0.00,,---,0.21,VWS V14.01,2013-04-10 12:43:00,
2013-04-10 08:49:00,54.9,53.2,29.85,South,186,0.0,3.0,94,0.00,,---,0.21,VWS V14.01,2013-04-10 12:49:00,
2013-04-10 08:55:00,55.1,53.4,29.86,South,186,0.0,3.0,94,0.00,,---,0.21,VWS V14.01,2013-04-10 12:55:00,
2013-04-10 09:01:00,55.2,53.5,29.85,South,187,0.0,3.0,94,0.00,,---,0.21,VWS V14.01,2013-04-10 13:01:00,
2013-04-10 09:07:00,55.4,53.7,29.85,SSE,157,0.0,2.0,94,0.00,,---,0.21,VWS V14.01,2013-04-10 13:07:00,
2013-04-10 09:13:00,55.7,54.0,29.85,SE,137,0.0,2.0,94,0.00,,---,0.21,VWS V14.01,2013-04-10 13:13:00,
2013-04-10 09:19:00,55.5,53.8,29.85,SSE,148,0.0,2.0,94,0.00,,---,0.21,VWS V14.01,2013-04-10 13:19:00,
2013-04-10 09:25:00,55.5,53.8,29.85,SE,143,1.0,2.0,94,0.00,,---,0.21,VWS V14.01,2013-04-10 13:25:00,
2013-04-10 09:31:00,55.6,53.9,29.85,SSE,152,0.0,3.0,94,0.00,,---,0.21,VWS V14.01,2013-04-10 13:31:00,
2013-04-10 09:38:00,55.9,54.2,29.84,ESE,117,3.0,3.0,94,0.00,,---,0.21,VWS V14.01,2013-04-10 13:38:00,
2013-04-10 09:44:00,56.1,54.4,29.84,ESE,117,0.0,3.0,94,0.00,,---,0.21,VWS V14.01,2013-04-10 13:44:00,
2013-04-10 09:50:00,56.4,54.4,29.85,ESE,117,0.0,3.0,93,0.00,,---,0.21,VWS V14.01,2013-04-10 13:50:00,
2013-04-10 09:56:00,57.0,55.0,29.84,ESE,117,0.0,3.0,93,0.00,,---,0.21,VWS V14.01,2013-04-10 13:56:00,
2013-04-10 10:02:00,57.3,55.3,29.84,ESE,117,0.0,3.0,93,0.00,,---,0.21,VWS V14.01,2013-04-10 14:02:00,
2013-04-10 10:08:00,58.1,55.8,29.85,ESE,117,0.0,1.0,92,0.00,,---,0.21,VWS V14.01,2013-04-10 14:08:00,
2013-04-10 10:14:00,59.0,56.1,29.84,SW,225,0.0,2.0,90,0.00,,---,0.21,VWS V14.01,2013-04-10 14:14:00,
2013-04-10 10:20:00,60.2,56.0,29.84,WSW,251,0.0,4.0,86,0.00,,---,0.21,VWS V14.01,2013-04-10 14:20:00,
2013-04-10 10:27:00,60.8,55.9,29.84,SW,236,3.0,6.0,84,0.00,,---,0.21,VWS V14.01,2013-04-10 14:27:00,
2013-04-10 10:33:00,61.2,56.3,29.84,WSW,254,0.0,2.0,84,0.00,,---,0.21,VWS V14.01,2013-04-10 14:33:00,
2013-04-10 10:39:00,61.6,57.4,29.84,SW,235,1.0,3.0,86,0.00,,---,0.21,VWS V14.01,2013-04-10 14:39:00,
2013-04-10 10:45:00,62.0,56.8,29.83,West,273,3.0,4.0,83,0.00,,---,0.21,VWS V14.01,2013-04-10 14:45:00,
2013-04-10 10:51:00,62.6,57.0,29.84,WSW,247,2.0,6.0,82,0.00,,---,0.21,VWS V14.01,2013-04-10 14:51:00,
2013-04-10 10:57:00,63.0,56.7,29.84,SW,225,3.0,6.0,80,0.00,,---,0.21,VWS V14.01,2013-04-10 14:57:00,
2013-04-10 11:03:00,62.9,57.0,29.83,SW,219,3.0,4.0,81,0.00,,---,0.21,VWS V14.01,2013-04-10 15:03:00,
2013-04-10 11:09:00,63.0,57.1,29.83,North,5,5.0,7.0,81,0.00,,---,0.21,VWS V14.01,2013-04-10 15:09:00,
2013-04-10 11:15:00,63.4,58.2,29.82,NE,34,5.0,11.0,83,0.00,,---,0.21,VWS V14.01,2013-04-10 15:15:00,
2013-04-10 11:21:00,63.8,57.9,29.82,WSW,243,1.0,11.0,81,0.00,,---,0.21,VWS V14.01,2013-04-10 15:21:00,
2013-04-10 11:27:00,64.0,58.4,29.82,WSW,244,2.0,11.0,82,0.00,,---,0.21,VWS V14.01,2013-04-10 15:27:00,
2013-04-10 11:33:00,64.6,58.3,29.82,West,263,5.0,11.0,80,0.00,,---,0.21,VWS V14.01,2013-04-10 15:33:00,
2013-04-10 11:40:00,65.0,58.3,29.82,North,360,8.0,11.0,79,0.00,,---,0.21,VWS V14.01,2013-04-10 15:40:00,
2013-04-10 11:46:00,65.0,58.7,29.82,WSW,245,3.0,11.0,80,0.00,,---,0.21,VWS V14.01,2013-04-10 15:46:00,
2013-04-10 11:52:00,65.2,58.5,29.82,WSW,240,2.0,14.0,79,0.00,,---,0.21,VWS V14.01,2013-04-10 15:52:00,
2013-04-10 11:58:00,65.2,58.9,29.82,North,360,7.0,14.0,80,0.00,,---,0.21,VWS V14.01,2013-04-10 15:58:00,
2013-04-10 12:04:00,65.2,58.5,29.82,West,276,7.0,12.0,79,0.00,,---,0.21,VWS V14.01,2013-04-10 16:04:00,
2013-04-10 12:10:00,65.3,58.6,29.82,WSW,242,2.0,13.0,79,0.00,,---,0.21,VWS V14.01,2013-04-10 16:10:00,
2013-04-10 12:18:00,65.4,59.1,29.82,SW,227,3.0,13.0,80,0.00,,---,0.21,VWS V14.01,2013-04-10 16:18:00,
2013-04-10 12:24:00,65.3,59.0,29.82,North,360,5.0,13.0,80,0.00,,---,0.21,VWS V14.01,2013-04-10 16:24:00,
2013-04-10 12:30:00,65.1,59.1,29.82,West,280,3.0,13.0,81,0.00,,---,0.21,VWS V14.01,2013-04-10 16:30:00,
2013-04-10 12:37:00,65.0,59.0,29.82,WSW,244,4.0,9.0,81,0.00,,---,0.21,VWS V14.01,2013-04-10 16:37:00,
2013-04-10 12:43:00,65.2,59.2,29.81,SSE,165,1.0,9.0,81,0.00,,---,0.21,VWS V14.01,2013-04-10 16:43:00,
2013-04-10 12:49:00,65.7,59.7,29.81,WSW,248,4.0,9.0,81,0.00,,---,0.21,VWS V14.01,2013-04-10 16:49:00,
2013-04-10 12:55:00,66.1,59.8,29.81,SW,223,2.0,9.0,80,0.00,,---,0.21,VWS V14.01,2013-04-10 16:55:00,
2013-04-10 13:01:00,66.4,60.0,29.81,North,360,9.0,12.0,80,0.00,,---,0.21,VWS V14.01,2013-04-10 17:01:00,
2013-04-10 13:07:00,66.4,60.0,29.81,South,188,4.0,12.0,80,0.00,,---,0.21,VWS V14.01,2013-04-10 17:07:00,
2013-04-10 13:13:00,66.5,59.8,29.81,West,268,3.0,12.0,79,0.00,,---,0.21,VWS V14.01,2013-04-10 17:13:00,
2013-04-10 13:19:00,66.3,60.0,29.81,West,267,5.0,14.0,80,0.00,,---,0.21,VWS V14.01,2013-04-10 17:19:00,
2013-04-10 13:25:00,66.1,59.8,29.82,West,273,3.0,14.0,80,0.00,,---,0.21,VWS V14.01,2013-04-10 17:25:00,
2013-04-10 13:31:00,65.9,59.6,29.81,West,261,3.0,14.0,80,0.00,,---,0.21,VWS V14.01,2013-04-10 17:31:00,
2013-04-10 13:37:00,65.8,59.5,29.81,West,261,0.0,3.0,80,0.00,,---,0.21,VWS V14.01,2013-04-10 17:37:00,
2013-04-10 13:44:00,64.8,59.5,29.83,West,279,5.0,9.0,83,0.04,,---,0.25,VWS V14.01,2013-04-10 17:44:00,